Time;durP1;ratioP1;P1;durP2;ratioP2;P2;SDS_P1;SDS_P2;PMS_P1;PMS_P2;Temp;Humidity;BMP_temperature;BMP_pressure;BME280_temperature;BME280_humidity;BME280_pressure;Samples;Min_cycle;Max_cycle;Signal;HPM_P1;HPM_P2
2024/03/02 00:00:21;;;;;;;1.30;0.37;;;8.20;99.90;;;;;;5075032;28;20032;-71
2024/03/02 00:02:49;;;;;;;0.40;0.28;;;8.20;99.90;;;;;;5087776;28;20047;-72
2024/03/02 00:05:19;;;;;;;0.35;0.35;;;8.20;99.90;;;;;;5084983;28;20084;-71
2024/03/02 00:07:58;;;;;;;2.80;1.00;;;8.20;99.90;;;;;;5099541;28;20416;-72
2024/03/02 00:10:40;;;;;;;0.90;0.65;;;8.30;99.90;;;;;;5083390;28;20368;-72
2024/03/02 00:13:09;;;;;;;0.70;0.40;;;8.20;99.90;;;;;;5084335;28;20230;-71
2024/03/02 00:15:43;;;;;;;0.88;0.55;;;8.30;99.90;;;;;;5085311;28;20104;-71
2024/03/02 00:18:11;;;;;;;1.13;0.80;;;8.40;99.90;;;;;;5099952;28;20407;-71
2024/03/02 00:20:37;;;;;;;1.08;0.80;;;8.40;99.90;;;;;;5082827;28;20043;-72
2024/03/02 00:23:04;;;;;;;0.40;0.20;;;8.40;99.90;;;;;;5087103;28;20502;-71
2024/03/02 00:25:43;;;;;;;0.90;0.60;;;8.50;99.90;;;;;;5085611;28;20032;-71
2024/03/02 00:28:29;;;;;;;0.57;0.40;;;8.50;99.90;;;;;;5082404;28;20068;-71
2024/03/02 00:31:11;;;;;;;0.73;0.32;;;8.60;99.90;;;;;;5085325;28;20161;-71
2024/03/02 00:33:45;;;;;;;0.85;0.55;;;8.60;99.90;;;;;;5087695;28;20411;-72
2024/03/02 00:36:15;;;;;;;0.57;0.47;;;8.60;99.90;;;;;;5068084;28;20391;-72
2024/03/02 00:38:52;;;;;;;0.63;0.40;;;8.60;99.90;;;;;;5079268;28;20071;-71
2024/03/02 00:41:30;;;;;;;0.45;0.20;;;8.70;99.90;;;;;;5092666;28;20031;-71
2024/03/02 00:44:04;;;;;;;0.60;0.50;;;8.70;99.90;;;;;;5070174;28;20040;-71
2024/03/02 00:46:36;;;;;;;0.52;0.20;;;8.70;99.90;;;;;;5067487;28;20476;-71
2024/03/02 00:49:04;;;;;;;0.50;0.20;;;8.80;99.90;;;;;;5076926;28;20044;-73
2024/03/02 00:51:34;;;;;;;1.00;0.50;;;8.70;99.90;;;;;;5086248;28;20032;-71
2024/03/02 00:54:03;;;;;;;0.73;0.52;;;8.70;99.90;;;;;;5086695;28;20135;-72
2024/03/02 00:56:30;;;;;;;1.73;0.70;;;8.70;99.90;;;;;;5084900;28;20059;-71
2024/03/02 00:58:55;;;;;;;0.80;0.50;;;8.80;99.90;;;;;;5082734;28;20385;-72
2024/03/02 01:01:22;;;;;;;0.55;0.30;;;8.80;99.90;;;;;;5087063;28;20062;-71
2024/03/02 01:03:51;;;;;;;0.20;0.15;;;8.80;99.90;;;;;;5082105;28;20389;-72
2024/03/02 01:06:17;;;;;;;1.00;0.40;;;8.80;99.90;;;;;;5070525;28;20040;-71
2024/03/02 01:08:43;;;;;;;1.38;0.70;;;8.70;99.90;;;;;;5091790;28;20029;-71
2024/03/02 01:11:08;;;;;;;0.35;0.20;;;8.80;99.90;;;;;;5065807;28;20048;-71
2024/03/02 01:13:34;;;;;;;0.65;0.50;;;8.80;99.90;;;;;;5080382;28;20119;-71
2024/03/02 01:16:00;;;;;;;0.65;0.38;;;8.70;99.90;;;;;;5103558;28;20032;-72
2024/03/02 01:18:26;;;;;;;0.50;0.15;;;8.70;99.90;;;;;;5083748;28;20036;-72
2024/03/02 01:20:52;;;;;;;0.95;0.43;;;8.70;99.90;;;;;;5085738;28;20088;-71
2024/03/02 01:23:24;;;;;;;1.15;0.80;;;8.70;99.90;;;;;;5084151;28;20124;-73
2024/03/02 01:25:51;;;;;;;0.50;0.30;;;8.70;99.90;;;;;;5084892;28;20101;-72
2024/03/02 01:28:17;;;;;;;0.77;0.50;;;8.70;99.90;;;;;;5084035;28;20044;-72
2024/03/02 01:30:43;;;;;;;0.77;0.20;;;8.70;99.90;;;;;;5082541;28;20093;-72
2024/03/02 01:33:09;;;;;;;0.45;0.35;;;8.60;99.90;;;;;;5081158;28;20044;-71
2024/03/02 01:35:34;;;;;;;0.38;0.28;;;8.60;99.90;;;;;;5086649;28;20073;-72
2024/03/02 01:38:01;;;;;;;0.47;0.30;;;8.60;99.90;;;;;;5083075;28;20036;-70
2024/03/02 01:40:26;;;;;;;0.70;0.30;;;8.70;99.90;;;;;;5082237;28;20557;-72
2024/03/02 01:42:58;;;;;;;1.15;0.50;;;8.70;99.90;;;;;;5084719;28;20029;-71
2024/03/02 01:45:24;;;;;;;1.85;0.40;;;8.70;99.90;;;;;;5083377;28;20174;-71
2024/03/02 01:47:51;;;;;;;1.20;0.60;;;8.70;99.90;;;;;;5086738;28;20048;-71
2024/03/02 01:50:34;;;;;;;0.80;0.30;;;8.60;99.90;;;;;;5099370;28;20131;-71
2024/03/02 01:53:00;;;;;;;1.02;0.57;;;8.60;99.90;;;;;;5084125;28;20052;-72
2024/03/02 01:55:28;;;;;;;0.45;0.35;;;8.60;99.90;;;;;;5083138;28;20051;-72
2024/03/02 01:57:54;;;;;;;3.90;0.77;;;8.60;99.90;;;;;;5072228;28;20051;-72
2024/03/02 02:00:21;;;;;;;0.47;0.28;;;8.60;99.90;;;;;;5068803;28;20526;-72
2024/03/02 02:02:48;;;;;;;0.77;0.50;;;8.60;99.90;;;;;;5069903;28;20047;-72
2024/03/02 02:05:14;;;;;;;0.25;0.20;;;8.60;99.90;;;;;;5069871;28;20164;-72
2024/03/02 02:07:41;;;;;;;0.82;0.30;;;8.60;99.90;;;;;;5105624;28;20051;-72
2024/03/02 02:10:07;;;;;;;0.82;0.65;;;8.60;99.90;;;;;;5085685;28;20052;-72
2024/03/02 02:12:33;;;;;;;1.38;0.30;;;8.60;99.90;;;;;;5071180;28;20085;-72
2024/03/02 02:14:59;;;;;;;0.50;0.38;;;8.60;99.90;;;;;;5089385;28;20048;-73
2024/03/02 02:17:25;;;;;;;3.10;1.20;;;8.60;99.90;;;;;;5089231;28;20056;-71
2024/03/02 02:19:50;;;;;;;0.75;0.55;;;8.50;99.90;;;;;;5086827;28;20032;-72
2024/03/02 02:22:16;;;;;;;1.10;0.43;;;8.60;99.90;;;;;;5089849;28;20474;-72
2024/03/02 02:24:42;;;;;;;0.77;0.35;;;8.60;99.90;;;;;;5087212;28;20051;-73
2024/03/02 02:27:08;;;;;;;0.20;0.20;;;8.50;99.90;;;;;;5071643;28;20081;-73
2024/03/02 02:29:34;;;;;;;0.80;0.50;;;8.50;99.90;;;;;;5090262;28;20480;-72
2024/03/02 02:32:00;;;;;;;0.85;0.47;;;8.60;99.90;;;;;;5105332;28;20494;-72
2024/03/02 02:34:26;;;;;;;0.25;0.25;;;8.60;99.90;;;;;;5086457;28;20050;-73
2024/03/02 02:36:52;;;;;;;0.60;0.30;;;8.70;99.90;;;;;;5089083;28;20067;-72
2024/03/02 02:39:21;;;;;;;2.20;0.88;;;8.60;99.90;;;;;;5085617;28;20044;-72
2024/03/02 02:41:47;;;;;;;0.70;0.32;;;8.70;99.90;;;;;;5100866;28;20471;-72
2024/03/02 02:44:12;;;;;;;0.22;0.20;;;8.70;99.90;;;;;;5073220;28;20177;-73
2024/03/02 02:46:41;;;;;;;0.75;0.40;;;8.70;99.90;;;;;;5103327;28;20082;-73
2024/03/02 02:49:07;;;;;;;0.65;0.35;;;8.70;99.90;;;;;;5073094;28;20048;-73
2024/03/02 02:51:33;;;;;;;0.80;0.40;;;8.70;99.90;;;;;;5087619;28;20399;-73
2024/03/02 02:53:59;;;;;;;0.65;0.50;;;8.70;99.90;;;;;;5088116;28;20533;-73
2024/03/02 02:56:25;;;;;;;0.50;0.20;;;8.70;99.90;;;;;;5087541;28;20101;-72
2024/03/02 02:58:51;;;;;;;0.25;0.10;;;8.70;99.90;;;;;;5086889;28;20048;-73
2024/03/02 03:01:17;;;;;;;0.43;0.25;;;8.70;99.90;;;;;;5086803;28;20519;-72
2024/03/02 03:03:44;;;;;;;0.50;0.20;;;8.70;99.90;;;;;;5090060;28;20467;-72
2024/03/02 03:06:10;;;;;;;1.58;0.40;;;8.80;99.90;;;;;;5088001;28;20033;-72
2024/03/02 03:08:36;;;;;;;2.10;0.77;;;8.70;99.90;;;;;;5069989;28;20036;-72
2024/03/02 03:11:01;;;;;;;0.25;0.17;;;8.80;99.90;;;;;;5070369;28;20418;-72
2024/03/02 03:13:27;;;;;;;1.40;0.93;;;8.80;99.90;;;;;;5088629;28;20494;-73
2024/03/02 03:15:53;;;;;;;0.40;0.28;;;8.70;99.90;;;;;;5084651;28;20036;-72
2024/03/02 03:18:19;;;;;;;0.52;0.28;;;8.70;99.90;;;;;;5087454;28;20028;-73
2024/03/02 03:20:44;;;;;;;1.65;0.45;;;8.70;99.90;;;;;;5088155;28;20040;-73
2024/03/02 03:23:14;;;;;;;1.50;0.30;;;8.70;99.90;;;;;;5088604;28;20104;-73
2024/03/02 03:25:41;;;;;;;4.30;0.68;;;8.70;99.90;;;;;;5086434;28;20097;-72
2024/03/02 03:28:09;;;;;;;0.68;0.20;;;8.80;99.90;;;;;;5087098;28;20059;-75
2024/03/02 03:30:36;;;;;;;0.45;0.40;;;8.80;99.90;;;;;;5088173;28;20071;-72
2024/03/02 03:33:02;;;;;;;2.70;0.40;;;8.70;99.90;;;;;;5083193;28;20044;-72
2024/03/02 03:35:27;;;;;;;0.30;0.20;;;8.80;99.90;;;;;;5089042;28;20116;-73
2024/03/02 03:37:53;;;;;;;0.85;0.25;;;8.80;99.90;;;;;;5086664;28;20032;-73
2024/03/02 03:40:19;;;;;;;1.08;0.40;;;8.80;99.90;;;;;;5087075;28;20480;-71
2024/03/02 03:42:44;;;;;;;0.75;0.25;;;8.80;99.90;;;;;;5068419;28;20043;-72
2024/03/02 03:45:10;;;;;;;0.77;0.35;;;8.80;99.90;;;;;;5088091;28;20407;-71
2024/03/02 03:47:36;;;;;;;0.35;0.30;;;8.80;99.90;;;;;;5087589;28;20039;-72
2024/03/02 03:50:05;;;;;;;0.52;0.15;;;8.80;99.90;;;;;;5086826;28;20039;-71
2024/03/02 03:52:31;;;;;;;0.45;0.40;;;8.80;99.90;;;;;;5082309;28;20117;-71
2024/03/02 03:54:57;;;;;;;0.93;0.50;;;8.90;99.90;;;;;;5088065;28;20521;-72
2024/03/02 03:57:22;;;;;;;1.35;0.47;;;8.80;99.90;;;;;;5086919;28;20028;-73
2024/03/02 03:59:48;;;;;;;0.47;0.22;;;8.80;99.90;;;;;;5083907;28;20047;-72
2024/03/02 04:02:14;;;;;;;0.38;0.20;;;8.80;99.90;;;;;;5087453;28;20047;-73
2024/03/02 04:04:39;;;;;;;1.58;0.38;;;8.80;99.90;;;;;;5084952;28;20040;-72
2024/03/02 04:07:05;;;;;;;1.45;0.82;;;8.80;99.90;;;;;;5088057;28;20499;-72
2024/03/02 04:09:31;;;;;;;1.35;0.65;;;8.80;99.90;;;;;;5080623;28;20039;-73
2024/03/02 04:11:56;;;;;;;0.35;0.30;;;8.80;99.90;;;;;;5089135;28;20141;-73
2024/03/02 04:14:22;;;;;;;1.30;0.47;;;8.80;99.90;;;;;;5080208;28;20035;-72
2024/03/02 04:16:47;;;;;;;1.08;0.57;;;8.80;99.90;;;;;;5088521;28;20071;-74
2024/03/02 04:19:13;;;;;;;0.68;0.43;;;8.70;99.90;;;;;;5081126;28;20044;-74
2024/03/02 04:21:39;;;;;;;1.48;0.47;;;8.70;99.90;;;;;;5088693;28;20459;-74
2024/03/02 04:24:05;;;;;;;0.60;0.43;;;8.70;99.90;;;;;;5083469;28;20040;-74
2024/03/02 04:26:30;;;;;;;0.50;0.30;;;8.70;99.90;;;;;;5088190;28;20210;-75
2024/03/02 04:28:56;;;;;;;1.10;0.20;;;8.70;99.90;;;;;;5083150;28;20409;-73
2024/03/02 04:31:22;;;;;;;1.08;0.32;;;8.70;99.90;;;;;;5087571;28;20147;-73
2024/03/02 04:33:47;;;;;;;1.00;0.82;;;8.60;99.90;;;;;;5087961;28;20035;-73
2024/03/02 04:36:13;;;;;;;0.20;0.10;;;8.60;99.90;;;;;;5087850;28;20040;-72
2024/03/02 04:38:39;;;;;;;1.13;0.30;;;8.60;99.90;;;;;;5103162;28;20047;-72
2024/03/02 04:41:08;;;;;;;0.32;0.30;;;8.60;99.90;;;;;;5068857;28;20139;-72
2024/03/02 04:43:34;;;;;;;0.52;0.50;;;8.60;99.90;;;;;;5087550;28;20061;-72
2024/03/02 04:46:00;;;;;;;0.40;0.20;;;8.60;99.90;;;;;;5101382;28;20036;-72
2024/03/02 04:48:26;;;;;;;1.02;0.35;;;8.60;99.90;;;;;;5070947;28;20036;-72
2024/03/02 04:50:51;;;;;;;0.85;0.20;;;8.60;99.90;;;;;;5081335;28;20048;-72
2024/03/02 04:53:17;;;;;;;0.77;0.47;;;8.60;99.90;;;;;;5087830;28;20040;-72
2024/03/02 04:58:09;;;;;;;0.98;0.28;;;8.50;99.90;;;;;;5086090;28;20032;-72
2024/03/02 05:00:35;;;;;;;0.85;0.47;;;8.50;99.90;;;;;;5083882;28;20520;-72
2024/03/02 05:03:01;;;;;;;2.53;0.55;;;8.60;99.90;;;;;;5083801;28;20040;-72
2024/03/02 05:05:27;;;;;;;1.27;0.50;;;8.50;99.90;;;;;;5082126;28;20081;-72
2024/03/02 05:07:53;;;;;;;0.60;0.30;;;8.50;99.90;;;;;;5081444;28;20469;-72
2024/03/02 05:10:18;;;;;;;1.27;0.52;;;8.50;99.90;;;;;;5084882;28;20039;-72
2024/03/02 05:15:11;;;;;;;0.70;0.30;;;8.40;99.90;;;;;;5085245;28;20063;-73
2024/03/02 05:17:37;;;;;;;2.35;0.47;;;8.40;99.90;;;;;;5081033;28;20040;-72
2024/03/02 05:20:10;;;;;;;0.30;0.20;;;8.40;99.90;;;;;;5070928;28;20040;-73
2024/03/02 05:22:36;;;;;;;0.30;0.30;;;8.40;99.90;;;;;;5084323;28;20112;-72
2024/03/02 05:25:03;;;;;;;1.17;0.75;;;8.40;99.90;;;;;;5083689;28;20087;-72
2024/03/02 05:27:29;;;;;;;0.30;0.20;;;8.40;99.90;;;;;;5091324;28;20100;-72
2024/03/02 05:29:54;;;;;;;1.10;0.40;;;8.40;99.90;;;;;;5086218;28;20123;-72
2024/03/02 05:32:20;;;;;;;0.47;0.28;;;8.40;99.90;;;;;;5100150;28;20039;-73
2024/03/02 05:34:46;;;;;;;0.32;0.30;;;8.40;99.90;;;;;;5088277;28;20051;-72
2024/03/02 05:37:12;;;;;;;1.42;0.88;;;8.40;99.90;;;;;;5089839;28;20040;-72
2024/03/02 05:39:38;;;;;;;0.20;0.20;;;8.40;99.90;;;;;;5091017;28;20039;-72
2024/03/02 05:42:03;;;;;;;0.85;0.50;;;8.40;99.90;;;;;;5090661;28;20036;-72
2024/03/02 05:44:29;;;;;;;1.60;0.40;;;8.40;99.90;;;;;;5089855;28;20432;-72
2024/03/02 05:46:55;;;;;;;0.30;0.22;;;8.40;99.90;;;;;;5089385;28;20036;-71
2024/03/02 05:49:21;;;;;;;1.92;0.95;;;8.40;99.90;;;;;;5089299;28;20044;-72
2024/03/02 05:51:47;;;;;;;0.47;0.28;;;8.40;99.90;;;;;;5089468;28;20129;-73
2024/03/02 05:54:13;;;;;;;1.17;0.65;;;8.40;99.90;;;;;;5090176;28;20056;-73
2024/03/02 05:56:39;;;;;;;0.60;0.30;;;8.30;99.90;;;;;;5089087;28;20715;-72
2024/03/02 05:59:13;;;;;;;0.70;0.50;;;8.30;99.90;;;;;;5088228;28;20074;-72
2024/03/02 06:01:43;;;;;;;0.50;0.30;;;8.30;99.90;;;;;;5086221;28;20036;-73
2024/03/02 06:04:13;;;;;;;0.80;0.40;;;8.30;99.90;;;;;;5086958;28;20079;-72
2024/03/02 06:06:42;;;;;;;0.35;0.30;;;8.30;99.90;;;;;;5089133;28;20040;-73
2024/03/02 06:09:12;;;;;;;0.70;0.52;;;8.20;99.90;;;;;;5099531;28;20558;-73
2024/03/02 06:11:39;;;;;;;0.75;0.30;;;8.20;99.90;;;;;;5069363;28;20116;-72
2024/03/02 06:14:06;;;;;;;0.47;0.30;;;8.20;99.90;;;;;;5068371;28;20419;-72
2024/03/02 06:16:33;;;;;;;0.45;0.30;;;8.10;99.90;;;;;;5071519;28;20036;-72
2024/03/02 06:18:58;;;;;;;0.57;0.32;;;8.00;99.90;;;;;;5080310;28;20039;-72
2024/03/02 06:21:25;;;;;;;0.68;0.40;;;8.00;99.90;;;;;;5089332;28;20500;-73
2024/03/02 06:23:51;;;;;;;0.47;0.38;;;7.90;99.90;;;;;;5084973;28;20119;-73
2024/03/02 06:26:16;;;;;;;0.63;0.32;;;7.80;99.90;;;;;;5088514;28;20356;-72
2024/03/02 06:28:42;;;;;;;0.40;0.20;;;7.70;99.90;;;;;;5086181;28;20083;-73
2024/03/02 06:31:08;;;;;;;0.28;0.20;;;7.60;99.90;;;;;;5089562;28;20127;-72
2024/03/02 06:33:34;;;;;;;0.10;0.10;;;7.60;99.90;;;;;;5082679;28;20169;-73
2024/03/02 06:36:01;;;;;;;0.68;0.20;;;7.50;99.90;;;;;;5088908;28;20508;-72
2024/03/02 06:38:26;;;;;;;0.47;0.15;;;7.50;99.90;;;;;;5087218;28;20028;-72
2024/03/02 06:40:52;;;;;;;4.75;0.15;;;7.40;99.90;;;;;;5088343;28;20108;-72
2024/03/02 06:43:18;;;;;;;0.00;0.00;;;7.40;99.90;;;;;;5102549;28;20509;-72
2024/03/02 06:45:43;;;;;;;0.68;0.10;;;7.40;99.90;;;;;;5086708;28;20059;-72
2024/03/02 06:48:09;;;;;;;0.00;0.00;;;7.40;99.90;;;;;;5084710;28;20540;-72
2024/03/02 06:50:35;;;;;;;0.00;0.00;;;7.40;99.90;;;;;;5088372;28;20048;-72
2024/03/02 06:53:01;;;;;;;0.10;0.05;;;7.50;99.90;;;;;;5081536;28;20048;-72
2024/03/02 06:55:26;;;;;;;0.20;0.10;;;7.50;99.90;;;;;;5084950;28;20051;-71
2024/03/02 06:57:52;;;;;;;0.38;0.10;;;7.60;99.90;;;;;;5073464;28;20040;-72
2024/03/02 07:00:20;;;;;;;1.35;0.90;;;7.60;99.90;;;;;;5100411;28;20032;-72
2024/03/02 07:02:46;;;;;;;0.73;0.10;;;7.70;99.90;;;;;;5088701;28;20043;-72
2024/03/02 07:05:12;;;;;;;0.22;0.22;;;7.80;99.90;;;;;;5083855;28;20119;-73
2024/03/02 07:07:37;;;;;;;0.10;0.10;;;7.90;99.90;;;;;;5088046;28;20124;-72
2024/03/02 07:10:10;;;;;;;0.03;0.03;;;8.00;99.90;;;;;;5080428;28;20042;-73
2024/03/02 07:12:36;;;;;;;4.78;0.20;;;8.10;99.90;;;;;;5070797;28;20044;-74
2024/03/02 07:17:28;;;;;;;0.00;0.00;;;8.10;99.90;;;;;;5087346;28;20123;-72
2024/03/02 07:19:54;;;;;;;0.10;0.10;;;8.10;99.90;;;;;;5085151;28;20126;-72
2024/03/02 07:22:20;;;;;;;0.00;0.00;;;8.10;99.90;;;;;;5085742;28;20111;-73
2024/03/02 07:24:46;;;;;;;0.38;0.03;;;8.20;99.90;;;;;;5084595;28;20036;-73
2024/03/02 07:27:13;;;;;;;0.30;0.30;;;8.30;99.90;;;;;;5085965;28;20042;-72
2024/03/02 07:29:39;;;;;;;0.08;0.08;;;8.30;99.90;;;;;;5085868;28;20050;-72
2024/03/02 07:32:06;;;;;;;0.10;0.03;;;8.40;99.90;;;;;;5068240;28;20131;-72
2024/03/02 07:34:32;;;;;;;0.10;0.10;;;8.40;99.90;;;;;;5084738;28;20046;-72
2024/03/02 07:36:58;;;;;;;0.00;0.00;;;8.50;99.90;;;;;;5080806;28;20115;-72
2024/03/02 07:39:24;;;;;;;0.03;0.03;;;8.60;99.90;;;;;;5068222;28;20484;-72
2024/03/02 07:41:53;;;;;;;1.55;1.10;;;8.70;99.90;;;;;;5086162;28;20040;-72
2024/03/02 07:44:19;;;;;;;0.20;0.10;;;8.80;99.90;;;;;;5083884;28;20036;-73
2024/03/02 07:46:46;;;;;;;0.10;0.00;;;8.90;99.90;;;;;;5067630;28;20043;-73
2024/03/02 07:49:16;;;;;;;0.00;0.00;;;9.10;99.90;;;;;;5086394;28;20547;-72
2024/03/02 07:51:42;;;;;;;0.20;0.10;;;9.20;99.90;;;;;;5068888;28;20059;-73
2024/03/02 07:54:08;;;;;;;0.00;0.00;;;9.40;99.90;;;;;;5085359;28;20171;-72
2024/03/02 07:56:34;;;;;;;0.10;0.05;;;9.60;99.90;;;;;;5084253;28;20079;-73
2024/03/02 07:59:04;;;;;;;0.22;0.08;;;10.00;99.90;;;;;;5106819;27;20113;-73
2024/03/02 08:01:32;;;;;;;0.10;0.03;;;10.70;99.90;;;;;;5085072;28;20297;-73
2024/03/02 08:03:59;;;;;;;0.20;0.10;;;11.10;99.90;;;;;;5089269;28;20118;-73
2024/03/02 08:06:27;;;;;;;0.20;0.10;;;11.10;99.90;;;;;;5087634;28;20024;-73
2024/03/02 08:09:00;;;;;;;0.00;0.00;;;10.80;99.90;;;;;;5084158;28;20031;-74
2024/03/02 08:11:30;;;;;;;0.00;0.00;;;10.60;99.90;;;;;;5088113;28;20093;-73
2024/03/02 08:13:56;;;;;;;0.00;0.00;;;11.10;99.90;;;;;;5086201;28;20051;-73
2024/03/02 08:16:25;;;;;;;0.00;0.00;;;12.20;99.90;;;;;;5084190;28;20040;-73
2024/03/02 08:18:52;;;;;;;0.10;0.00;;;13.20;99.90;;;;;;5069764;28;20061;-73
2024/03/02 08:21:18;;;;;;;0.00;0.00;;;14.10;99.90;;;;;;5085165;28;20088;-73
2024/03/02 08:23:44;;;;;;;0.52;0.20;;;14.90;99.90;;;;;;5088055;28;20036;-73
2024/03/02 08:26:10;;;;;;;0.00;0.00;;;15.40;99.90;;;;;;5082790;28;20043;-74
2024/03/02 08:28:45;;;;;;;0.63;0.20;;;15.70;99.90;;;;;;5088070;28;20035;-72
2024/03/02 08:31:11;;;;;;;1.20;0.10;;;15.90;99.90;;;;;;5081729;28;20047;-73
2024/03/02 08:33:37;;;;;;;0.13;0.00;;;15.40;99.90;;;;;;5080064;28;20079;-72
2024/03/02 08:36:03;;;;;;;0.00;0.00;;;14.90;99.90;;;;;;5084497;28;20044;-73
2024/03/02 08:38:29;;;;;;;0.10;0.00;;;15.00;99.90;;;;;;5081345;28;20031;-73
2024/03/02 08:40:55;;;;;;;0.00;0.00;;;15.10;99.90;;;;;;5085348;28;20044;-73
2024/03/02 08:43:24;;;;;;;0.00;0.00;;;14.90;99.90;;;;;;5079724;28;20137;-74
2024/03/02 08:45:50;;;;;;;0.25;0.03;;;14.50;99.90;;;;;;5085463;28;20095;-73
2024/03/02 08:48:16;;;;;;;1.58;0.20;;;14.60;99.90;;;;;;5083107;28;20036;-73
2024/03/02 08:50:42;;;;;;;0.32;0.00;;;15.10;99.90;;;;;;5103614;28;20074;-75
2024/03/02 08:53:08;;;;;;;0.00;0.00;;;15.60;99.90;;;;;;5066690;28;20071;-73
2024/03/02 08:55:33;;;;;;;5.07;0.20;;;15.80;99.90;;;;;;5085502;28;20086;-73
2024/03/02 08:57:59;;;;;;;4.32;0.10;;;16.10;99.90;;;;;;5084686;28;20109;-72
2024/03/02 09:00:25;;;;;;;0.15;0.00;;;16.40;99.90;;;;;;5100804;28;20121;-72
2024/03/02 09:02:51;;;;;;;0.43;0.10;;;16.30;99.90;;;;;;5083608;28;20036;-73
2024/03/02 09:05:17;;;;;;;1.58;0.10;;;16.30;99.90;;;;;;5086183;28;20040;-75
2024/03/02 09:07:42;;;;;;;0.77;0.17;;;16.50;99.90;;;;;;5072556;28;20040;-74
2024/03/02 09:10:09;;;;;;;0.00;0.00;;;16.50;99.90;;;;;;5103321;28;20075;-73
2024/03/02 09:12:35;;;;;;;0.35;0.10;;;16.00;99.90;;;;;;5089374;28;20040;-73
2024/03/02 09:15:03;;;;;;;0.10;0.00;;;15.00;99.90;;;;;;5085978;28;20039;-73
2024/03/02 09:17:29;;;;;;;0.22;0.00;;;14.40;99.90;;;;;;5074361;28;20527;-73
2024/03/02 09:19:54;;;;;;;0.25;0.00;;;13.80;99.90;;;;;;5084228;28;20044;-85
2024/03/02 09:22:20;;;;;;;0.00;0.00;;;13.30;99.90;;;;;;5094374;28;20109;-85
2024/03/02 09:24:46;;;;;;;0.10;0.10;;;12.80;99.90;;;;;;5089195;28;20036;-83
2024/03/02 09:27:12;;;;;;;0.10;0.00;;;12.30;99.90;;;;;;5091598;28;20028;-85
2024/03/02 09:29:38;;;;;;;1.35;0.03;;;12.10;99.90;;;;;;5092153;28;20044;-85
2024/03/02 09:32:05;;;;;;;0.00;0.00;;;11.80;99.90;;;;;;5087514;28;20354;-84
2024/03/02 09:34:31;;;;;;;0.00;0.00;;;11.60;99.90;;;;;;5080953;28;20378;-80
2024/03/02 09:36:57;;;;;;;0.00;0.00;;;11.50;99.90;;;;;;5088082;28;20036;-85
2024/03/02 09:39:25;;;;;;;1.00;0.20;;;11.50;99.90;;;;;;5087447;28;20061;-84
2024/03/02 09:41:51;;;;;;;0.25;0.10;;;11.50;99.90;;;;;;5098518;28;20106;-85
2024/03/02 09:44:17;;;;;;;0.20;0.00;;;11.50;99.90;;;;;;5065353;28;20051;-83
2024/03/02 09:46:43;;;;;;;0.65;0.20;;;11.50;99.90;;;;;;5104721;28;20028;-79
2024/03/02 09:49:10;;;;;;;0.45;0.10;;;11.50;99.90;;;;;;5090623;28;20101;-86
2024/03/02 09:51:37;;;;;;;0.20;0.00;;;11.80;99.90;;;;;;5087737;28;20560;-85
2024/03/02 09:54:03;;;;;;;0.35;0.10;;;12.20;99.90;;;;;;5087124;28;20412;-86
2024/03/02 09:56:29;;;;;;;0.80;0.15;;;12.40;99.90;;;;;;5103709;28;20032;-86
2024/03/02 09:58:55;;;;;;;0.10;0.05;;;12.30;99.90;;;;;;5087094;28;20029;-87
2024/03/02 10:01:20;;;;;;;1.20;0.30;;;12.20;99.90;;;;;;5088010;28;20063;-86
2024/03/02 10:03:50;;;;;;;0.00;0.00;;;12.60;99.90;;;;;;5085507;28;20404;-85
2024/03/02 10:06:25;;;;;;;0.10;0.10;;;13.00;99.90;;;;;;5085950;28;20350;-87
2024/03/02 10:08:52;;;;;;;0.32;0.15;;;14.00;99.90;;;;;;5089042;28;20596;-83
2024/03/02 10:11:32;;;;;;;1.80;0.20;;;15.00;99.90;;;;;;5104125;28;20105;-82
2024/03/02 10:14:10;;;;;;;0.20;0.00;;;15.50;99.90;;;;;;5107238;28;20134;-88
2024/03/02 10:16:45;;;;;;;0.32;0.00;;;16.10;99.90;;;;;;5088591;28;20071;-83
2024/03/02 10:19:22;;;;;;;0.00;0.00;;;16.50;99.90;;;;;;5088409;28;20474;-83
2024/03/02 10:21:52;;;;;;;0.00;0.00;;;16.70;99.90;;;;;;5085986;28;20123;-84
2024/03/02 10:24:25;;;;;;;0.00;0.00;;;16.90;99.90;;;;;;5072967;28;20206;-85
2024/03/02 10:26:51;;;;;;;0.55;0.10;;;16.90;99.90;;;;;;5101279;28;21376;-85
2024/03/02 10:29:17;;;;;;;0.35;0.00;;;16.90;99.90;;;;;;5089678;28;20051;-87
2024/03/02 10:31:45;;;;;;;1.33;0.00;;;17.30;99.90;;;;;;5092632;28;20040;-78
2024/03/02 10:34:12;;;;;;;0.13;0.00;;;17.30;99.90;;;;;;5086814;28;20032;-87
2024/03/02 10:36:41;;;;;;;0.45;0.00;;;17.30;99.90;;;;;;5086401;28;20047;-85
2024/03/02 10:39:08;;;;;;;0.00;0.00;;;17.40;99.90;;;;;;5074832;28;20044;-85
2024/03/02 10:41:36;;;;;;;0.30;0.30;;;17.80;99.90;;;;;;5092494;28;20040;-87
2024/03/02 10:44:03;;;;;;;0.25;0.00;;;18.30;99.90;;;;;;5090634;28;20584;-83
2024/03/02 10:46:32;;;;;;;0.05;0.00;;;18.90;99.90;;;;;;5072286;28;20533;-83
2024/03/02 10:49:03;;;;;;;0.45;0.00;;;19.10;99.90;;;;;;5094314;28;20496;-86
2024/03/02 10:51:31;;;;;;;0.00;0.00;;;19.30;99.90;;;;;;5092685;28;20044;-86
2024/03/02 10:54:01;;;;;;;0.00;0.00;;;19.00;99.90;;;;;;5089752;28;20087;-85
2024/03/02 10:56:38;;;;;;;0.13;0.00;;;18.10;99.90;;;;;;5090617;28;20047;-87
2024/03/02 10:59:17;;;;;;;0.10;0.00;;;17.70;99.90;;;;;;5087394;28;20048;-85
2024/03/02 11:01:47;;;;;;;0.20;0.10;;;17.40;99.90;;;;;;5068618;28;20484;-73
2024/03/02 11:04:17;;;;;;;1.55;0.05;;;17.40;99.90;;;;;;5087271;28;20047;-74
2024/03/02 11:06:52;;;;;;;0.03;0.00;;;17.40;99.90;;;;;;5087678;28;20076;-79
2024/03/02 11:09:25;;;;;;;0.45;0.10;;;17.60;99.90;;;;;;5083355;28;20044;-82
2024/03/02 11:12:38;;;;;;;1.97;0.10;;;17.40;99.90;;;;;;5101542;28;20391;-81
2024/03/02 11:15:09;;;;;;;0.00;0.00;;;16.50;99.90;;;;;;5005943;28;20484;-81
2024/03/02 11:17:35;;;;;;;0.03;0.00;;;16.60;99.90;;;;;;5054222;28;20047;-81
2024/03/02 11:20:03;;;;;;;0.05;0.00;;;16.80;99.90;;;;;;5074326;28;20040;-81
2024/03/02 11:22:29;;;;;;;0.10;0.00;;;16.20;99.90;;;;;;5076383;28;20068;-81
2024/03/02 11:24:55;;;;;;;0.47;0.10;;;15.60;99.90;;;;;;5088388;28;20040;-81
2024/03/02 11:28:01;;;;;;;0.35;0.10;;;15.30;99.90;;;;;;5086662;28;20047;-81
2024/03/02 11:30:33;;;;;;;0.00;0.00;;;16.40;99.90;;;;;;5054224;28;20089;-81
2024/03/02 11:33:07;;;;;;;0.20;0.10;;;17.00;99.90;;;;;;5056249;28;20403;-81
2024/03/02 11:35:37;;;;;;;1.00;0.10;;;17.20;99.90;;;;;;5054482;28;20054;-80
2024/03/02 11:38:03;;;;;;;0.45;0.20;;;17.50;99.90;;;;;;5070172;28;20059;-81
2024/03/02 11:40:30;;;;;;;0.00;0.00;;;17.90;99.90;;;;;;5086753;28;20047;-80
2024/03/02 11:42:59;;;;;;;0.30;0.05;;;18.50;99.90;;;;;;5103247;28;20718;-81
2024/03/02 11:45:26;;;;;;;0.52;0.00;;;19.10;99.90;;;;;;5070298;28;20066;-81
2024/03/02 11:48:03;;;;;;;0.32;0.13;;;18.60;99.90;;;;;;5086750;28;20071;-80
2024/03/02 11:50:39;;;;;;;0.28;0.10;;;18.30;99.90;;;;;;5106238;28;20502;-80
2024/03/02 11:53:12;;;;;;;0.52;0.00;;;18.60;99.90;;;;;;5096213;28;20084;-82
2024/03/02 11:55:40;;;;;;;0.10;0.00;;;18.10;99.90;;;;;;5088751;28;20074;-81
2024/03/02 11:58:07;;;;;;;0.28;0.10;;;18.50;99.90;;;;;;5068650;28;20036;-81
2024/03/02 12:00:33;;;;;;;0.45;0.10;;;19.50;99.90;;;;;;5081160;28;20102;-80
2024/03/02 12:03:03;;;;;;;0.20;0.10;;;20.00;99.90;;;;;;5091804;28;20044;-82
2024/03/02 12:05:30;;;;;;;1.52;0.15;;;20.30;99.90;;;;;;5091381;28;20036;-82
2024/03/02 12:08:06;;;;;;;0.20;0.20;;;20.60;99.90;;;;;;5074501;28;20044;-82
2024/03/02 12:10:34;;;;;;;0.10;0.00;;;20.30;99.90;;;;;;5089679;28;20046;-82
2024/03/02 12:13:02;;;;;;;0.10;0.00;;;20.30;99.90;;;;;;5075427;28;20050;-83
2024/03/02 12:15:31;;;;;;;0.05;0.00;;;20.40;99.90;;;;;;5076429;28;20466;-82
2024/03/02 12:17:58;;;;;;;0.63;0.00;;;19.90;99.90;;;;;;5094106;28;20071;-81
2024/03/02 12:20:25;;;;;;;0.00;0.00;;;19.80;99.90;;;;;;5075794;28;20582;-81
2024/03/02 12:22:57;;;;;;;0.22;0.10;;;20.10;99.90;;;;;;5091919;28;20271;-82
2024/03/02 12:25:24;;;;;;;0.85;0.10;;;20.30;99.90;;;;;;5090811;28;20040;-82
2024/03/02 12:27:52;;;;;;;0.68;0.10;;;20.40;99.90;;;;;;5090287;28;20043;-82
2024/03/02 12:30:18;;;;;;;0.03;0.00;;;20.60;99.90;;;;;;5072731;28;20103;-82
2024/03/02 12:32:45;;;;;;;0.30;0.10;;;20.70;99.90;;;;;;5077537;28;20043;-81
2024/03/02 12:35:14;;;;;;;0.00;0.00;;;20.70;99.90;;;;;;5083665;28;20092;-84
2024/03/02 12:37:47;;;;;;;0.08;0.08;;;20.90;99.90;;;;;;5090167;28;20036;-86
2024/03/02 12:40:15;;;;;;;0.03;0.03;;;20.80;99.90;;;;;;5087442;28;20040;-84
2024/03/02 12:42:44;;;;;;;0.17;0.08;;;20.80;99.90;;;;;;5085838;28;20040;-80
2024/03/02 12:45:10;;;;;;;1.45;0.10;;;20.80;99.90;;;;;;5082548;28;20028;-85
2024/03/02 12:47:36;;;;;;;0.10;0.10;;;21.00;99.90;;;;;;5090994;28;20492;-85
2024/03/02 12:50:05;;;;;;;0.28;0.05;;;21.20;99.90;;;;;;5083418;28;20373;-86
2024/03/02 12:52:34;;;;;;;0.15;0.10;;;20.90;99.90;;;;;;5069009;28;20048;-85
2024/03/02 12:55:02;;;;;;;1.45;0.15;;;20.60;99.90;;;;;;5088943;28;20056;-86
2024/03/02 12:57:29;;;;;;;0.88;0.10;;;19.90;99.90;;;;;;5084879;28;20105;-85
2024/03/02 13:00:08;;;;;;;0.00;0.00;;;18.90;99.90;;;;;;5085732;28;20040;-84
2024/03/02 13:02:35;;;;;;;0.05;0.03;;;17.70;99.90;;;;;;5084762;28;20032;-85